createdAt,value
2023-04-24T00:02:23.270Z,17.80
2023-04-24T00:05:26.078Z,17.80
2023-04-24T00:08:28.331Z,17.90
2023-04-24T00:11:30.891Z,17.80
2023-04-24T00:14:33.374Z,17.80
2023-04-24T00:17:35.751Z,17.90
2023-04-24T00:20:38.853Z,17.90
2023-04-24T00:23:41.048Z,17.80
2023-04-24T00:26:43.570Z,17.80
2023-04-24T00:29:45.992Z,17.80
2023-04-24T00:32:48.318Z,17.80
2023-04-24T00:35:50.634Z,17.80
2023-04-24T00:38:52.990Z,17.80
2023-04-24T00:41:55.433Z,17.80
2023-04-24T00:44:58.619Z,17.80
2023-04-24T00:48:02.113Z,17.80
2023-04-24T00:51:04.630Z,17.80
2023-04-24T00:54:07.338Z,17.80
2023-04-24T00:57:09.521Z,17.80
2023-04-24T01:00:13.237Z,17.80
2023-04-24T01:03:15.822Z,17.80
2023-04-24T01:06:19.588Z,17.80
2023-04-24T01:09:24.290Z,17.80
2023-04-24T01:12:26.927Z,17.80
2023-04-24T01:15:29.222Z,17.80
2023-04-24T01:18:31.582Z,17.70
2023-04-24T01:21:38.019Z,17.70
2023-04-24T01:24:40.710Z,17.70
2023-04-24T01:27:43.055Z,17.80
2023-04-24T01:30:45.869Z,17.70
2023-04-24T01:33:48.812Z,17.70
2023-04-24T01:36:51.546Z,17.70
2023-04-24T01:39:53.743Z,17.70
2023-04-24T01:42:56.482Z,17.70
2023-04-24T01:45:58.798Z,17.70
2023-04-24T01:49:01.960Z,17.70
2023-04-24T01:52:04.335Z,17.70
2023-04-24T01:55:08.271Z,17.70
2023-04-24T01:58:10.965Z,17.70
2023-04-24T02:01:20.253Z,17.70
2023-04-24T02:04:23.959Z,17.70
2023-04-24T02:07:26.341Z,17.70
2023-04-24T02:10:28.550Z,17.70
2023-04-24T02:13:31.026Z,17.70
2023-04-24T02:16:33.885Z,17.70
2023-04-24T02:19:36.553Z,17.70
2023-04-24T02:22:40.130Z,17.70
2023-04-24T02:25:42.453Z,17.70
2023-04-24T02:28:44.689Z,17.70
2023-04-24T02:31:46.844Z,17.60
2023-04-24T02:34:50.694Z,17.70
2023-04-24T02:37:53.003Z,17.60
2023-04-24T02:40:55.445Z,17.60
2023-04-24T02:43:57.756Z,17.60
2023-04-24T02:46:59.994Z,17.60
2023-04-24T02:50:04.068Z,17.60
2023-04-24T02:53:06.355Z,17.60
2023-04-24T02:56:08.920Z,17.60
2023-04-24T02:59:11.901Z,17.60
2023-04-24T03:02:14.588Z,17.60
2023-04-24T03:05:17.184Z,17.60
2023-04-24T03:08:19.697Z,17.60
2023-04-24T03:11:22.313Z,17.60
2023-04-24T03:14:24.872Z,17.60
2023-04-24T03:17:27.192Z,17.60
2023-04-24T03:20:29.842Z,17.60
2023-04-24T03:23:33.464Z,17.60
2023-04-24T03:26:36.289Z,17.60
2023-04-24T03:29:58.910Z,17.60
2023-04-24T03:33:21.535Z,17.60
2023-04-24T03:36:36.397Z,17.60
2023-04-24T03:39:40.033Z,17.60
2023-04-24T03:42:42.501Z,17.60
2023-04-24T03:45:46.995Z,17.60
2023-04-24T03:48:50.258Z,17.60
2023-04-24T03:51:54.988Z,17.50
2023-04-24T03:54:59.659Z,17.50
2023-04-24T03:58:03.148Z,17.50
2023-04-24T04:01:06.835Z,17.50
2023-04-24T04:04:23.981Z,17.50
2023-04-24T04:07:26.965Z,17.50
2023-04-24T04:10:29.392Z,17.50
2023-04-24T04:13:32.445Z,17.50
2023-04-24T04:16:35.137Z,17.50
2023-04-24T04:19:39.302Z,17.50
2023-04-24T04:22:44.289Z,17.50
2023-04-24T04:25:51.221Z,17.50
2023-04-24T04:28:55.550Z,17.50
2023-04-24T04:31:58.471Z,17.50
2023-04-24T04:35:04.807Z,17.50
2023-04-24T04:38:09.617Z,17.50
2023-04-24T04:41:36.415Z,17.50
2023-04-24T04:44:39.944Z,17.50
2023-04-24T04:47:44.295Z,17.50
2023-04-24T04:50:46.711Z,17.50
2023-04-24T04:53:49.600Z,17.50
2023-04-24T04:56:52.409Z,17.50
2023-04-24T04:59:55.133Z,17.50
2023-04-24T05:03:20.732Z,17.50
2023-04-24T05:06:28.916Z,17.50
2023-04-24T05:09:31.403Z,17.40
2023-04-24T05:12:38.471Z,17.40
2023-04-24T05:15:41.063Z,17.40
2023-04-24T05:18:43.455Z,17.40
2023-04-24T05:21:49.337Z,17.40
2023-04-24T05:24:51.729Z,17.40
2023-04-24T05:28:10.403Z,17.40
2023-04-24T05:31:13.747Z,17.40
2023-04-24T05:34:17.903Z,17.40
2023-04-24T05:37:22.236Z,17.40
2023-04-24T05:40:24.791Z,17.40
2023-04-24T05:43:27.307Z,17.40
2023-04-24T05:46:29.863Z,17.40
2023-04-24T05:49:32.732Z,17.40
2023-04-24T05:52:35.202Z,17.40
2023-04-24T05:55:41.314Z,17.40
2023-04-24T05:58:43.737Z,17.40
2023-04-24T06:01:46.133Z,17.30
2023-04-24T06:04:53.075Z,17.40
2023-04-24T06:07:55.607Z,17.30
2023-04-24T06:11:00.455Z,17.40
2023-04-24T06:14:03.316Z,17.30
2023-04-24T06:17:33.499Z,17.30
2023-04-24T06:20:35.783Z,17.30
2023-04-24T06:23:38.181Z,17.30
2023-04-24T06:26:40.462Z,17.30
2023-04-24T06:29:43.719Z,17.30
2023-04-24T06:32:46.383Z,17.30
2023-04-24T06:35:48.978Z,17.30
2023-04-24T06:38:51.690Z,17.30
2023-04-24T06:41:53.931Z,17.30
2023-04-24T06:44:56.429Z,17.30
2023-04-24T06:47:58.920Z,17.30
2023-04-24T06:51:01.164Z,17.20
2023-04-24T06:54:03.625Z,17.30
2023-04-24T06:57:05.890Z,17.20
2023-04-24T07:00:10.926Z,17.30
2023-04-24T07:03:13.421Z,17.30
2023-04-24T07:06:17.660Z,17.30
2023-04-24T07:09:20.026Z,17.30
2023-04-24T07:12:23.011Z,17.20
2023-04-24T07:15:25.227Z,17.30
2023-04-24T07:18:27.559Z,17.30
2023-04-24T07:21:29.954Z,17.20
2023-04-24T07:24:33.908Z,17.20
2023-04-24T07:27:37.449Z,17.20
2023-04-24T07:30:40.138Z,17.20
2023-04-24T07:33:42.730Z,17.20
2023-04-24T07:36:45.220Z,17.20
2023-04-24T07:39:47.721Z,17.20
2023-04-24T07:42:50.162Z,17.20
2023-04-24T07:45:52.857Z,17.20
2023-04-24T07:49:05.628Z,17.20
2023-04-24T07:52:14.353Z,17.20
2023-04-24T07:55:16.888Z,17.20
2023-04-24T07:58:19.253Z,17.20
2023-04-24T08:01:21.701Z,17.20
2023-04-24T08:04:24.166Z,17.20
2023-04-24T08:07:26.548Z,17.20
2023-04-24T08:10:28.817Z,17.20
2023-04-24T08:13:31.368Z,17.20
2023-04-24T08:16:34.785Z,17.20
2023-04-24T08:19:37.081Z,17.20
2023-04-24T08:22:39.299Z,17.20
2023-04-24T08:25:41.572Z,17.20
2023-04-24T08:28:44.179Z,17.20
2023-04-24T08:31:46.453Z,17.20
2023-04-24T08:34:49.848Z,17.20
2023-04-24T08:37:54.441Z,17.20
2023-04-24T08:40:59.678Z,17.20
2023-04-24T08:44:03.620Z,17.20
2023-04-24T08:47:06.514Z,17.20
2023-04-24T08:50:11.001Z,17.20
2023-04-24T08:53:13.604Z,17.20
2023-04-24T08:56:16.114Z,17.20
2023-04-24T08:59:19.132Z,17.20
2023-04-24T09:02:22.598Z,17.20
2023-04-24T09:05:27.084Z,17.20
2023-04-24T09:08:32.000Z,17.20
2023-04-24T09:11:34.495Z,17.30
2023-04-24T09:14:39.752Z,17.30
2023-04-24T09:17:42.144Z,17.30
2023-04-24T09:21:01.680Z,17.20
2023-04-24T09:24:06.786Z,17.30
2023-04-24T09:27:12.187Z,17.30
2023-04-24T09:30:15.395Z,17.30
2023-04-24T09:33:17.702Z,17.20
2023-04-24T09:36:19.898Z,17.30
2023-04-24T09:39:22.355Z,17.20
2023-04-24T09:42:30.263Z,17.30
2023-04-24T09:45:40.922Z,17.20
2023-04-24T09:48:43.465Z,17.30
2023-04-24T09:51:45.804Z,17.30
2023-04-24T09:54:55.150Z,17.30
2023-04-24T09:58:01.380Z,17.20
2023-04-24T10:01:04.156Z,17.30
2023-04-24T10:04:06.759Z,17.30
2023-04-24T10:07:11.222Z,17.30
2023-04-24T10:10:13.591Z,17.30
2023-04-24T10:13:17.001Z,17.20
2023-04-24T10:16:20.257Z,17.30
2023-04-24T10:19:24.282Z,17.20
2023-04-24T10:22:28.018Z,17.20
2023-04-24T10:25:35.609Z,17.20
2023-04-24T10:28:38.294Z,17.30
2023-04-24T10:31:41.451Z,17.30
2023-04-24T10:34:43.833Z,17.30
2023-04-24T10:37:50.077Z,17.20
2023-04-24T10:40:52.381Z,17.30
2023-04-24T10:44:14.505Z,17.20
2023-04-24T10:47:17.070Z,17.30
2023-04-24T10:50:19.340Z,17.20
2023-04-24T10:53:25.383Z,17.20
2023-04-24T10:56:27.796Z,17.20
2023-04-24T10:59:36.372Z,17.20
2023-04-24T11:02:40.431Z,17.30
2023-04-24T11:05:59.232Z,17.30
2023-04-24T11:09:08.774Z,17.20
2023-04-24T11:12:12.859Z,17.30
2023-04-24T11:15:18.427Z,17.30
2023-04-24T11:18:20.820Z,17.30
2023-04-24T11:21:23.920Z,17.30
2023-04-24T11:24:39.380Z,17.30
2023-04-24T11:27:50.060Z,17.30
2023-04-24T11:30:52.563Z,17.30
2023-04-24T11:33:55.246Z,17.30
2023-04-24T11:36:57.641Z,17.30
2023-04-24T11:40:00.613Z,17.30
2023-04-24T11:43:07.785Z,17.30
2023-04-24T11:46:10.418Z,17.30
2023-04-24T11:49:13.728Z,17.30
2023-04-24T11:52:17.798Z,17.30
2023-04-24T11:55:20.137Z,17.30
2023-04-24T11:58:23.951Z,17.30
2023-04-24T12:01:26.299Z,17.30
2023-04-24T12:04:39.676Z,17.40
2023-04-24T12:07:44.037Z,17.30
2023-04-24T12:10:52.306Z,17.40
2023-04-24T12:13:54.802Z,17.30
2023-04-24T12:16:57.177Z,17.40
2023-04-24T12:20:05.270Z,17.40
2023-04-24T12:23:07.725Z,17.40
2023-04-24T12:26:10.074Z,17.40
2023-04-24T12:29:13.413Z,17.40
2023-04-24T12:32:18.808Z,17.40
2023-04-24T12:35:22.879Z,17.40
2023-04-24T12:38:27.407Z,17.40
2023-04-24T12:41:32.214Z,17.40
2023-04-24T12:44:38.301Z,17.40
2023-04-24T12:47:41.737Z,17.40
2023-04-24T12:50:46.460Z,17.40
2023-04-24T12:53:49.536Z,17.40
2023-04-24T12:56:54.738Z,17.40
2023-04-24T12:59:59.536Z,17.40
2023-04-24T13:03:02.715Z,17.40
2023-04-24T13:06:05.569Z,17.40
2023-04-24T13:09:08.247Z,17.40
2023-04-24T13:12:11.653Z,17.40
2023-04-24T13:15:14.509Z,17.50
2023-04-24T13:18:17.015Z,17.40
2023-04-24T13:21:19.439Z,17.50
2023-04-24T13:24:21.793Z,17.40
2023-04-24T13:27:23.945Z,17.40
2023-04-24T13:30:26.508Z,17.40
2023-04-24T13:33:29.001Z,17.40
2023-04-24T13:36:31.665Z,17.40
2023-04-24T13:39:34.019Z,17.40
2023-04-24T13:42:36.263Z,17.40
2023-04-24T13:45:39.180Z,17.40
2023-04-24T13:48:41.506Z,17.50
2023-04-24T13:51:44.894Z,17.50
2023-04-24T13:54:47.147Z,17.50
2023-04-24T13:57:50.100Z,17.50
2023-04-24T14:00:52.403Z,17.50
2023-04-24T14:03:57.614Z,17.50
2023-04-24T14:07:00.292Z,17.50
2023-04-24T14:10:03.106Z,17.50
2023-04-24T14:13:05.649Z,17.50
2023-04-24T14:16:08.277Z,17.50
2023-04-24T14:19:10.563Z,17.50
2023-04-24T14:22:12.822Z,17.50
2023-04-24T14:25:15.179Z,17.50
2023-04-24T14:28:17.847Z,17.50
2023-04-24T14:31:20.300Z,17.50
2023-04-24T14:34:22.551Z,17.50
2023-04-24T14:37:24.760Z,17.50
2023-04-24T14:40:48.699Z,17.50
2023-04-24T14:43:49.399Z,17.50
2023-04-24T14:46:51.927Z,17.50
2023-04-24T14:49:55.532Z,17.50
2023-04-24T14:53:03.411Z,17.50
2023-04-24T14:56:06.519Z,17.50
2023-04-24T14:59:09.182Z,17.50
2023-04-24T15:02:16.608Z,17.50
2023-04-24T15:05:20.301Z,17.50
2023-04-24T15:08:22.995Z,17.50
2023-04-24T15:11:25.361Z,17.50
2023-04-24T15:14:27.924Z,17.60
2023-04-24T15:17:30.418Z,17.60
2023-04-24T15:20:33.329Z,17.60
2023-04-24T15:23:35.867Z,17.60
2023-04-24T15:26:38.271Z,17.60
2023-04-24T15:29:40.603Z,17.60
2023-04-24T15:32:42.962Z,17.60
2023-04-24T15:35:45.281Z,17.60
2023-04-24T15:38:47.951Z,17.60
2023-04-24T15:41:51.531Z,17.60
2023-04-24T15:44:53.768Z,17.60
2023-04-24T15:47:56.860Z,17.60
2023-04-24T15:51:00.031Z,17.60
2023-04-24T15:54:02.705Z,17.60
2023-04-24T15:57:05.162Z,17.60
2023-04-24T16:00:08.398Z,17.60
2023-04-24T16:03:16.708Z,17.60
2023-04-24T16:06:19.172Z,17.60
2023-04-24T16:09:21.608Z,17.60
2023-04-24T16:12:27.890Z,17.60
2023-04-24T16:15:30.974Z,17.60
2023-04-24T16:18:33.253Z,17.60
2023-04-24T16:21:35.533Z,17.60
2023-04-24T16:24:38.020Z,17.60
2023-04-24T16:27:40.388Z,17.60
2023-04-24T16:30:42.638Z,17.60
2023-04-24T16:33:44.941Z,17.60
2023-04-24T16:36:47.368Z,17.60
2023-04-24T16:39:49.561Z,17.60
2023-04-24T16:42:53.026Z,17.60
2023-04-24T16:45:55.540Z,17.60
2023-04-24T16:48:58.739Z,17.60
2023-04-24T16:52:01.653Z,17.60
2023-04-24T16:55:04.257Z,17.60
2023-04-24T16:58:06.742Z,17.60
2023-04-24T17:01:09.022Z,17.60
2023-04-24T17:04:12.000Z,17.60
2023-04-24T17:07:14.698Z,17.60
2023-04-24T17:10:17.042Z,17.60
2023-04-24T17:13:19.414Z,17.60
2023-04-24T17:16:21.782Z,17.60
2023-04-24T17:19:24.207Z,17.60
2023-04-24T17:22:26.924Z,17.60
2023-04-24T17:25:29.986Z,17.60
2023-04-24T17:28:34.051Z,17.60
2023-04-24T17:31:36.463Z,17.60
2023-04-24T17:34:38.769Z,17.60
2023-04-24T17:37:41.291Z,17.60
2023-04-24T17:40:43.743Z,17.60
2023-04-24T17:43:46.114Z,17.60
2023-04-24T17:46:48.426Z,17.60
2023-04-24T17:49:50.745Z,17.60
2023-04-24T17:52:53.188Z,17.60
2023-04-24T17:55:59.528Z,17.60
2023-04-24T17:59:02.118Z,17.60
2023-04-24T18:02:04.477Z,17.60
2023-04-24T18:05:06.892Z,17.60
2023-04-24T18:08:09.427Z,17.60
2023-04-24T18:11:12.194Z,17.60
2023-04-24T18:14:14.481Z,17.60
2023-04-24T18:17:16.830Z,17.60
2023-04-24T18:20:20.073Z,17.60
2023-04-24T18:23:22.413Z,17.60
2023-04-24T18:26:25.009Z,17.60
2023-04-24T18:29:27.383Z,17.60
2023-04-24T18:32:29.815Z,17.60
2023-04-24T18:35:32.209Z,17.60
2023-04-24T18:38:34.530Z,17.60
2023-04-24T18:41:36.776Z,17.60
2023-04-24T18:44:42.966Z,17.60
2023-04-24T18:47:45.385Z,17.60
2023-04-24T18:50:47.720Z,17.60
2023-04-24T18:53:50.042Z,17.60
2023-04-24T18:56:52.419Z,17.60
2023-04-24T18:59:54.722Z,17.60
2023-04-24T19:02:56.977Z,17.60
2023-04-24T19:05:59.596Z,17.60
2023-04-24T19:09:01.939Z,17.60
2023-04-24T19:12:06.665Z,17.60
2023-04-24T19:15:13.122Z,17.60
2023-04-24T19:18:17.276Z,17.60
2023-04-24T19:21:19.525Z,17.60
2023-04-24T19:24:21.819Z,17.60
2023-04-24T19:27:24.479Z,17.60
2023-04-24T19:30:26.717Z,17.60
2023-04-24T19:33:29.124Z,17.60
2023-04-24T19:36:32.548Z,17.60
2023-04-24T19:39:34.818Z,17.60
2023-04-24T19:45:44.816Z,17.60
2023-04-24T19:48:47.345Z,17.60
2023-04-24T19:51:49.728Z,17.60
2023-04-24T19:54:52.607Z,17.60
2023-04-24T19:57:54.851Z,17.60
2023-04-24T20:00:57.921Z,17.60
2023-04-24T20:04:00.407Z,17.60
2023-04-24T20:07:02.920Z,17.60
2023-04-24T20:10:05.611Z,17.60
2023-04-24T20:13:08.035Z,17.60
2023-04-24T20:16:11.609Z,17.60
2023-04-24T20:19:14.145Z,17.60
2023-04-24T20:22:16.426Z,17.50
2023-04-24T20:25:18.701Z,17.60
2023-04-24T20:28:20.898Z,17.60
2023-04-24T20:31:23.176Z,17.50
2023-04-24T20:34:25.711Z,17.60
2023-04-24T20:37:29.395Z,17.50
2023-04-24T20:40:31.874Z,17.60
2023-04-24T20:43:34.251Z,17.50
2023-04-24T20:46:36.687Z,17.50
2023-04-24T20:49:38.953Z,17.50
2023-04-24T20:52:41.340Z,17.50
2023-04-24T20:55:43.645Z,17.50
2023-04-24T20:58:49.451Z,17.50
2023-04-24T21:01:52.257Z,17.50
2023-04-24T21:04:54.558Z,17.50
2023-04-24T21:07:56.905Z,17.50
2023-04-24T21:10:59.199Z,17.50
2023-04-24T21:14:01.505Z,17.50
2023-04-24T21:17:03.914Z,17.50
2023-04-24T21:20:08.166Z,17.50
2023-04-24T21:23:10.672Z,17.50
2023-04-24T21:26:13.053Z,17.50
2023-04-24T21:29:15.303Z,17.50
2023-04-24T21:32:17.736Z,17.50
2023-04-24T21:35:20.162Z,17.50
2023-04-24T21:38:24.788Z,17.40
2023-04-24T21:41:27.219Z,17.50
2023-04-24T21:44:29.423Z,17.40
2023-04-24T21:47:32.400Z,17.40
2023-04-24T21:50:34.724Z,17.40
2023-04-24T21:53:37.156Z,17.40
2023-04-24T21:56:41.632Z,17.40
2023-04-24T21:59:44.369Z,17.40
2023-04-24T22:02:46.940Z,17.40
2023-04-24T22:05:49.299Z,17.40
2023-04-24T22:08:51.880Z,17.40
2023-04-24T22:11:54.445Z,17.40
2023-04-24T22:14:56.817Z,17.40
2023-04-24T22:17:59.170Z,17.40
2023-04-24T22:21:01.436Z,17.40
2023-04-24T22:24:03.946Z,17.40
2023-04-24T22:27:06.315Z,17.40
2023-04-24T22:30:09.707Z,17.40
2023-04-24T22:33:12.006Z,17.40
2023-04-24T22:36:14.339Z,17.40
2023-04-24T22:39:17.718Z,17.40
2023-04-24T22:42:19.952Z,17.40
2023-04-24T22:45:24.994Z,17.30
2023-04-24T22:48:27.356Z,17.30
2023-04-24T22:51:30.021Z,17.40
2023-04-24T22:54:36.155Z,17.30
2023-04-24T22:57:38.511Z,17.30
2023-04-24T23:00:40.760Z,17.30
2023-04-24T23:03:43.755Z,17.30
2023-04-24T23:06:46.317Z,17.30
2023-04-24T23:09:48.702Z,17.30
2023-04-24T23:12:51.471Z,17.30
2023-04-24T23:15:54.816Z,17.30
2023-04-24T23:18:57.498Z,17.30
2023-04-24T23:22:00.524Z,17.30
2023-04-24T23:25:02.954Z,17.20
2023-04-24T23:28:05.798Z,17.30
2023-04-24T23:31:08.056Z,17.30
2023-04-24T23:34:10.399Z,17.20
2023-04-24T23:37:12.816Z,17.20
2023-04-24T23:40:15.211Z,17.20
2023-04-24T23:43:17.767Z,17.20
2023-04-24T23:46:20.097Z,17.20
2023-04-24T23:49:22.394Z,17.20
2023-04-24T23:52:24.766Z,17.20
2023-04-24T23:55:27.200Z,17.20
2023-04-24T23:58:29.527Z,17.20
